sensor_id;sensor_type;location;lat;lon;timestamp;temperature;humidity
27795;DHT22;15176;50.844;4.412;2022-11-18T00:00:48;13.80;99.90
27795;DHT22;15176;50.844;4.412;2022-11-18T00:03:14;13.80;99.90
27795;DHT22;15176;50.844;4.412;2022-11-18T00:05:41;14.10;99.90
27795;DHT22;15176;50.844;4.412;2022-11-18T00:08:09;13.80;99.90
27795;DHT22;15176;50.844;4.412;2022-11-18T00:10:38;13.90;99.90
27795;DHT22;15176;50.844;4.412;2022-11-18T00:13:03;13.90;99.90
27795;DHT22;15176;50.844;4.412;2022-11-18T00:15:48;14.20;99.90
27795;DHT22;15176;50.844;4.412;2022-11-18T00:18:14;14.20;99.90
27795;DHT22;15176;50.844;4.412;2022-11-18T00:20:39;14.30;99.90
27795;DHT22;15176;50.844;4.412;2022-11-18T00:23:06;14.20;99.90
27795;DHT22;15176;50.844;4.412;2022-11-18T00:25:33;13.90;99.90
27795;DHT22;15176;50.844;4.412;2022-11-18T00:27:58;14.10;99.90
27795;DHT22;15176;50.844;4.412;2022-11-18T00:30:25;13.60;99.90
27795;DHT22;15176;50.844;4.412;2022-11-18T00:32:55;13.60;99.90
27795;DHT22;15176;50.844;4.412;2022-11-18T00:35:20;13.90;99.90
27795;DHT22;15176;50.844;4.412;2022-11-18T00:37:46;13.90;99.90
27795;DHT22;15176;50.844;4.412;2022-11-18T00:40:12;13.80;99.90
27795;DHT22;15176;50.844;4.412;2022-11-18T00:42:39;13.90;99.90
27795;DHT22;15176;50.844;4.412;2022-11-18T00:45:19;13.60;99.90
27795;DHT22;15176;50.844;4.412;2022-11-18T00:47:44;13.70;99.90
27795;DHT22;15176;50.844;4.412;2022-11-18T00:50:11;13.50;99.90
27795;DHT22;15176;50.844;4.412;2022-11-18T00:52:36;13.50;99.90
27795;DHT22;15176;50.844;4.412;2022-11-18T00:55:02;13.60;99.90
27795;DHT22;15176;50.844;4.412;2022-11-18T00:57:28;13.80;99.90
27795;DHT22;15176;50.844;4.412;2022-11-18T00:59:54;13.70;99.90
27795;DHT22;15176;50.844;4.412;2022-11-18T01:02:23;13.80;99.90
27795;DHT22;15176;50.844;4.412;2022-11-18T01:04:48;13.40;99.90
27795;DHT22;15176;50.844;4.412;2022-11-18T01:07:15;13.30;99.90
27795;DHT22;15176;50.844;4.412;2022-11-18T01:09:41;13.20;99.90
27795;DHT22;15176;50.844;4.412;2022-11-18T01:12:09;13.50;99.90
27795;DHT22;15176;50.844;4.412;2022-11-18T01:14:53;13.60;99.90
27795;DHT22;15176;50.844;4.412;2022-11-18T01:17:19;13.60;99.90
27795;DHT22;15176;50.844;4.412;2022-11-18T01:19:45;13.70;99.90
27795;DHT22;15176;50.844;4.412;2022-11-18T01:22:11;14.00;99.90
27795;DHT22;15176;50.844;4.412;2022-11-18T01:24:36;13.70;99.90
27795;DHT22;15176;50.844;4.412;2022-11-18T01:27:02;13.70;99.90
27795;DHT22;15176;50.844;4.412;2022-11-18T01:29:28;13.40;99.90
27795;DHT22;15176;50.844;4.412;2022-11-18T01:31:54;13.10;99.90
27795;DHT22;15176;50.844;4.412;2022-11-18T01:34:19;12.60;99.90
27795;DHT22;15176;50.844;4.412;2022-11-18T01:36:45;12.90;99.90
27795;DHT22;15176;50.844;4.412;2022-11-18T01:39:11;13.20;99.90
27795;DHT22;15176;50.844;4.412;2022-11-18T01:41:37;13.10;99.90
27795;DHT22;15176;50.844;4.412;2022-11-18T01:44:05;13.30;99.90
27795;DHT22;15176;50.844;4.412;2022-11-18T01:46:49;12.70;99.90
27795;DHT22;15176;50.844;4.412;2022-11-18T01:49:15;12.70;99.90
27795;DHT22;15176;50.844;4.412;2022-11-18T01:51:53;12.40;99.90
27795;DHT22;15176;50.844;4.412;2022-11-18T01:54:35;12.50;99.90
27795;DHT22;15176;50.844;4.412;2022-11-18T01:57:07;12.80;99.90
27795;DHT22;15176;50.844;4.412;2022-11-18T01:59:36;12.60;99.90
27795;DHT22;15176;50.844;4.412;2022-11-18T02:02:10;12.70;99.90
27795;DHT22;15176;50.844;4.412;2022-11-18T02:04:40;12.80;99.90
27795;DHT22;15176;50.844;4.412;2022-11-18T02:07:07;13.00;99.90
27795;DHT22;15176;50.844;4.412;2022-11-18T02:09:35;13.20;99.90
27795;DHT22;15176;50.844;4.412;2022-11-18T02:12:01;13.50;99.90
27795;DHT22;15176;50.844;4.412;2022-11-18T02:14:34;13.30;99.90
27795;DHT22;15176;50.844;4.412;2022-11-18T02:33:25;14.00;99.90
27795;DHT22;15176;50.844;4.412;2022-11-18T02:36:04;14.10;99.90
27795;DHT22;15176;50.844;4.412;2022-11-18T02:38:38;14.00;99.90
27795;DHT22;15176;50.844;4.412;2022-11-18T02:41:09;13.80;99.90
27795;DHT22;15176;50.844;4.412;2022-11-18T02:43:41;13.50;99.90
27795;DHT22;15176;50.844;4.412;2022-11-18T02:46:12;13.40;99.90
27795;DHT22;15176;50.844;4.412;2022-11-18T02:48:43;13.70;99.90
27795;DHT22;15176;50.844;4.412;2022-11-18T02:51:12;14.00;99.90
27795;DHT22;15176;50.844;4.412;2022-11-18T02:53:41;14.20;99.90
27795;DHT22;15176;50.844;4.412;2022-11-18T02:56:08;14.20;99.90
27795;DHT22;15176;50.844;4.412;2022-11-18T02:58:34;14.10;99.90
27795;DHT22;15176;50.844;4.412;2022-11-18T03:01:01;13.80;99.90
27795;DHT22;15176;50.844;4.412;2022-11-18T03:03:34;13.30;99.90
27795;DHT22;15176;50.844;4.412;2022-11-18T03:08:54;13.80;99.90
27795;DHT22;15176;50.844;4.412;2022-11-18T03:11:25;13.70;99.90
27795;DHT22;15176;50.844;4.412;2022-11-18T03:16:51;14.00;99.90
27795;DHT22;15176;50.844;4.412;2022-11-18T03:19:27;13.90;99.90
27795;DHT22;15176;50.844;4.412;2022-11-18T03:24:40;14.10;99.90
27795;DHT22;15176;50.844;4.412;2022-11-18T03:27:20;13.90;99.90
27795;DHT22;15176;50.844;4.412;2022-11-18T03:29:53;13.90;99.90
27795;DHT22;15176;50.844;4.412;2022-11-18T03:32:32;13.80;99.90
27795;DHT22;15176;50.844;4.412;2022-11-18T03:35:11;13.80;99.90
27795;DHT22;15176;50.844;4.412;2022-11-18T03:37:41;13.50;99.90
27795;DHT22;15176;50.844;4.412;2022-11-18T03:42:44;13.90;99.90
27795;DHT22;15176;50.844;4.412;2022-11-18T03:45:16;14.00;99.90
27795;DHT22;15176;50.844;4.412;2022-11-18T03:47:49;14.00;99.90
27795;DHT22;15176;50.844;4.412;2022-11-18T03:50:30;14.10;99.90
27795;DHT22;15176;50.844;4.412;2022-11-18T03:52:57;14.10;99.90
27795;DHT22;15176;50.844;4.412;2022-11-18T03:55:28;14.20;99.90
27795;DHT22;15176;50.844;4.412;2022-11-18T04:00:39;13.40;99.90
27795;DHT22;15176;50.844;4.412;2022-11-18T04:03:07;13.40;99.90
27795;DHT22;15176;50.844;4.412;2022-11-18T04:05:36;13.70;99.90
27795;DHT22;15176;50.844;4.412;2022-11-18T04:08:06;13.80;99.90
27795;DHT22;15176;50.844;4.412;2022-11-18T04:10:44;13.40;99.90
27795;DHT22;15176;50.844;4.412;2022-11-18T04:13:19;13.90;99.90
27795;DHT22;15176;50.844;4.412;2022-11-18T04:15:47;13.80;99.90
27795;DHT22;15176;50.844;4.412;2022-11-18T04:18:12;14.00;99.90
27795;DHT22;15176;50.844;4.412;2022-11-18T04:20:38;14.20;99.90
27795;DHT22;15176;50.844;4.412;2022-11-18T04:23:05;14.10;99.90
27795;DHT22;15176;50.844;4.412;2022-11-18T04:25:31;14.30;99.90
27795;DHT22;15176;50.844;4.412;2022-11-18T04:27:57;14.40;99.90
27795;DHT22;15176;50.844;4.412;2022-11-18T04:30:23;14.60;99.90
27795;DHT22;15176;50.844;4.412;2022-11-18T04:32:49;14.70;99.90
27795;DHT22;15176;50.844;4.412;2022-11-18T04:35:15;14.00;99.90
27795;DHT22;15176;50.844;4.412;2022-11-18T04:37:41;13.50;99.90
27795;DHT22;15176;50.844;4.412;2022-11-18T04:40:08;13.10;99.90
27795;DHT22;15176;50.844;4.412;2022-11-18T04:42:34;13.40;99.90
27795;DHT22;15176;50.844;4.412;2022-11-18T04:44:59;13.00;99.90
27795;DHT22;15176;50.844;4.412;2022-11-18T04:47:25;12.70;99.90
27795;DHT22;15176;50.844;4.412;2022-11-18T04:49:51;12.60;99.90
27795;DHT22;15176;50.844;4.412;2022-11-18T04:52:18;13.00;99.90
27795;DHT22;15176;50.844;4.412;2022-11-18T04:54:43;13.40;99.90
27795;DHT22;15176;50.844;4.412;2022-11-18T04:57:09;13.30;99.90
27795;DHT22;15176;50.844;4.412;2022-11-18T04:59:35;12.80;99.90
27795;DHT22;15176;50.844;4.412;2022-11-18T05:02:01;12.80;99.90
27795;DHT22;15176;50.844;4.412;2022-11-18T05:04:29;13.30;99.90
27795;DHT22;15176;50.844;4.412;2022-11-18T05:06:56;13.30;99.90
27795;DHT22;15176;50.844;4.412;2022-11-18T05:09:22;13.60;99.90
27795;DHT22;15176;50.844;4.412;2022-11-18T05:11:48;13.90;99.90
27795;DHT22;15176;50.844;4.412;2022-11-18T05:14:33;13.60;99.90
27795;DHT22;15176;50.844;4.412;2022-11-18T05:17:00;13.90;99.90
27795;DHT22;15176;50.844;4.412;2022-11-18T05:19:27;13.90;99.90
27795;DHT22;15176;50.844;4.412;2022-11-18T05:21:53;14.20;99.90
27795;DHT22;15176;50.844;4.412;2022-11-18T05:24:19;14.30;99.90
27795;DHT22;15176;50.844;4.412;2022-11-18T05:26:45;14.20;99.90
27795;DHT22;15176;50.844;4.412;2022-11-18T05:29:11;14.00;99.90
27795;DHT22;15176;50.844;4.412;2022-11-18T05:31:37;13.30;99.90
27795;DHT22;15176;50.844;4.412;2022-11-18T05:34:03;13.20;99.90
27795;DHT22;15176;50.844;4.412;2022-11-18T05:36:29;13.40;99.90
27795;DHT22;15176;50.844;4.412;2022-11-18T05:38:57;13.50;99.90
27795;DHT22;15176;50.844;4.412;2022-11-18T05:41:24;13.80;99.90
27795;DHT22;15176;50.844;4.412;2022-11-18T05:44:08;13.60;99.90
27795;DHT22;15176;50.844;4.412;2022-11-18T05:46:34;13.60;99.90
27795;DHT22;15176;50.844;4.412;2022-11-18T05:48:59;13.50;99.90
27795;DHT22;15176;50.844;4.412;2022-11-18T05:51:25;13.30;99.90
27795;DHT22;15176;50.844;4.412;2022-11-18T05:53:51;13.40;99.90
27795;DHT22;15176;50.844;4.412;2022-11-18T05:56:28;13.90;99.90
27795;DHT22;15176;50.844;4.412;2022-11-18T05:58:55;14.20;99.90
27795;DHT22;15176;50.844;4.412;2022-11-18T06:01:31;14.00;99.90
27795;DHT22;15176;50.844;4.412;2022-11-18T06:03:58;14.10;99.90
27795;DHT22;15176;50.844;4.412;2022-11-18T06:06:25;13.90;99.90
27795;DHT22;15176;50.844;4.412;2022-11-18T06:08:58;14.10;99.90
27795;DHT22;15176;50.844;4.412;2022-11-18T06:11:25;14.40;99.90
27795;DHT22;15176;50.844;4.412;2022-11-18T06:14:08;14.50;99.90
27795;DHT22;15176;50.844;4.412;2022-11-18T06:16:38;14.80;99.90
27795;DHT22;15176;50.844;4.412;2022-11-18T06:19:05;14.90;99.90
27795;DHT22;15176;50.844;4.412;2022-11-18T06:21:31;14.80;99.90
27795;DHT22;15176;50.844;4.412;2022-11-18T06:23:58;14.80;99.90
27795;DHT22;15176;50.844;4.412;2022-11-18T06:26:24;14.50;99.90
27795;DHT22;15176;50.844;4.412;2022-11-18T06:28:50;14.20;99.90
27795;DHT22;15176;50.844;4.412;2022-11-18T06:31:15;14.20;99.90
27795;DHT22;15176;50.844;4.412;2022-11-18T06:33:41;13.90;99.90
27795;DHT22;15176;50.844;4.412;2022-11-18T06:36:09;14.10;99.90
27795;DHT22;15176;50.844;4.412;2022-11-18T06:38:34;14.40;99.90
27795;DHT22;15176;50.844;4.412;2022-11-18T06:41:00;14.50;99.90
27795;DHT22;15176;50.844;4.412;2022-11-18T06:43:26;14.50;99.90
27795;DHT22;15176;50.844;4.412;2022-11-18T06:46:08;14.30;99.90
27795;DHT22;15176;50.844;4.412;2022-11-18T06:48:53;14.70;99.90
27795;DHT22;15176;50.844;4.412;2022-11-18T06:51:19;14.60;99.90
27795;DHT22;15176;50.844;4.412;2022-11-18T06:53:44;14.90;99.90
27795;DHT22;15176;50.844;4.412;2022-11-18T06:56:12;15.10;99.90
27795;DHT22;15176;50.844;4.412;2022-11-18T06:58:38;15.10;99.90
27795;DHT22;15176;50.844;4.412;2022-11-18T07:03:37;15.20;99.90
27795;DHT22;15176;50.844;4.412;2022-11-18T07:06:03;14.50;99.90
27795;DHT22;15176;50.844;4.412;2022-11-18T07:08:28;14.80;99.90
27795;DHT22;15176;50.844;4.412;2022-11-18T07:10:54;15.40;99.90
27795;DHT22;15176;50.844;4.412;2022-11-18T07:13:20;15.30;99.90
27795;DHT22;15176;50.844;4.412;2022-11-18T07:15:45;15.00;99.90
27795;DHT22;15176;50.844;4.412;2022-11-18T07:18:11;15.50;99.90
27795;DHT22;15176;50.844;4.412;2022-11-18T07:20:37;15.60;99.90
27795;DHT22;15176;50.844;4.412;2022-11-18T07:23:03;15.50;99.90
27795;DHT22;15176;50.844;4.412;2022-11-18T07:25:28;15.60;99.90
27795;DHT22;15176;50.844;4.412;2022-11-18T07:27:54;15.80;99.90
27795;DHT22;15176;50.844;4.412;2022-11-18T07:30:20;15.30;99.90
27795;DHT22;15176;50.844;4.412;2022-11-18T07:32:46;15.50;99.90
27795;DHT22;15176;50.844;4.412;2022-11-18T07:35:12;14.80;99.90
27795;DHT22;15176;50.844;4.412;2022-11-18T07:37:39;13.90;99.90
27795;DHT22;15176;50.844;4.412;2022-11-18T07:40:06;14.30;99.90
27795;DHT22;15176;50.844;4.412;2022-11-18T07:42:33;14.20;99.90
27795;DHT22;15176;50.844;4.412;2022-11-18T07:45:09;14.30;99.90
27795;DHT22;15176;50.844;4.412;2022-11-18T07:47:37;13.40;99.90
27795;DHT22;15176;50.844;4.412;2022-11-18T07:50:04;13.10;99.90
27795;DHT22;15176;50.844;4.412;2022-11-18T07:52:29;12.90;99.90
27795;DHT22;15176;50.844;4.412;2022-11-18T07:54:55;13.00;99.90
27795;DHT22;15176;50.844;4.412;2022-11-18T07:57:21;12.90;99.90
27795;DHT22;15176;50.844;4.412;2022-11-18T07:59:47;13.40;99.90
27795;DHT22;15176;50.844;4.412;2022-11-18T08:02:13;13.40;99.90
27795;DHT22;15176;50.844;4.412;2022-11-18T08:04:39;13.60;99.90
27795;DHT22;15176;50.844;4.412;2022-11-18T08:07:04;13.90;99.90
27795;DHT22;15176;50.844;4.412;2022-11-18T08:09:30;13.10;99.90
27795;DHT22;15176;50.844;4.412;2022-11-18T08:11:56;12.70;99.90
27795;DHT22;15176;50.844;4.412;2022-11-18T08:14:21;12.80;99.90
27795;DHT22;15176;50.844;4.412;2022-11-18T08:16:48;13.10;99.90
27795;DHT22;15176;50.844;4.412;2022-11-18T08:19:14;12.90;99.90
27795;DHT22;15176;50.844;4.412;2022-11-18T08:21:40;12.90;99.90
27795;DHT22;15176;50.844;4.412;2022-11-18T08:24:09;13.00;99.90
27795;DHT22;15176;50.844;4.412;2022-11-18T08:26:35;13.10;99.90
27795;DHT22;15176;50.844;4.412;2022-11-18T08:29:01;13.20;99.90
27795;DHT22;15176;50.844;4.412;2022-11-18T08:31:28;12.90;99.90
27795;DHT22;15176;50.844;4.412;2022-11-18T08:34:05;12.30;99.90
27795;DHT22;15176;50.844;4.412;2022-11-18T08:36:33;12.00;99.90
27795;DHT22;15176;50.844;4.412;2022-11-18T08:39:00;11.90;99.90
27795;DHT22;15176;50.844;4.412;2022-11-18T08:41:36;12.70;99.90
27795;DHT22;15176;50.844;4.412;2022-11-18T08:44:03;12.70;99.90
27795;DHT22;15176;50.844;4.412;2022-11-18T08:46:29;12.70;99.90
27795;DHT22;15176;50.844;4.412;2022-11-18T08:48:56;13.10;99.90
27795;DHT22;15176;50.844;4.412;2022-11-18T08:51:21;12.70;99.90
27795;DHT22;15176;50.844;4.412;2022-11-18T08:53:47;12.70;99.90
27795;DHT22;15176;50.844;4.412;2022-11-18T08:56:15;12.30;99.90
27795;DHT22;15176;50.844;4.412;2022-11-18T08:58:41;12.60;99.90
27795;DHT22;15176;50.844;4.412;2022-11-18T09:01:08;12.90;99.90
27795;DHT22;15176;50.844;4.412;2022-11-18T09:03:38;13.00;99.90
27795;DHT22;15176;50.844;4.412;2022-11-18T09:06:12;12.60;99.90
27795;DHT22;15176;50.844;4.412;2022-11-18T09:08:42;12.40;99.90
27795;DHT22;15176;50.844;4.412;2022-11-18T09:11:14;12.80;99.90
27795;DHT22;15176;50.844;4.412;2022-11-18T09:13:41;13.00;99.90
27795;DHT22;15176;50.844;4.412;2022-11-18T09:16:07;12.60;99.90
27795;DHT22;15176;50.844;4.412;2022-11-18T09:18:33;13.20;99.90
27795;DHT22;15176;50.844;4.412;2022-11-18T09:21:05;13.50;99.90
27795;DHT22;15176;50.844;4.412;2022-11-18T09:23:32;13.80;99.90
27795;DHT22;15176;50.844;4.412;2022-11-18T09:26:07;13.80;99.90
27795;DHT22;15176;50.844;4.412;2022-11-18T09:28:34;13.70;99.90
27795;DHT22;15176;50.844;4.412;2022-11-18T09:31:18;13.10;99.90
27795;DHT22;15176;50.844;4.412;2022-11-18T09:33:44;12.70;99.90
27795;DHT22;15176;50.844;4.412;2022-11-18T09:36:16;12.90;99.90
27795;DHT22;15176;50.844;4.412;2022-11-18T09:38:42;13.30;99.90
27795;DHT22;15176;50.844;4.412;2022-11-18T09:41:39;13.40;99.90
27795;DHT22;15176;50.844;4.412;2022-11-18T09:49:39;13.10;99.90
27795;DHT22;15176;50.844;4.412;2022-11-18T09:54:44;13.10;99.90
27795;DHT22;15176;50.844;4.412;2022-11-18T09:57:18;12.60;99.90
27795;DHT22;15176;50.844;4.412;2022-11-18T09:59:44;13.00;99.90
27795;DHT22;15176;50.844;4.412;2022-11-18T10:05:22;13.40;99.90
27795;DHT22;15176;50.844;4.412;2022-11-18T10:25:41;13.50;99.90
27795;DHT22;15176;50.844;4.412;2022-11-18T10:28:20;13.00;99.90
27795;DHT22;15176;50.844;4.412;2022-11-18T10:30:46;12.90;99.90
27795;DHT22;15176;50.844;4.412;2022-11-18T10:35:48;13.30;99.90
27795;DHT22;15176;50.844;4.412;2022-11-18T10:38:19;13.50;99.90
27795;DHT22;15176;50.844;4.412;2022-11-18T10:43:43;13.70;99.90
27795;DHT22;15176;50.844;4.412;2022-11-18T10:46:30;13.80;99.90
27795;DHT22;15176;50.844;4.412;2022-11-18T10:52:10;13.30;99.90
27795;DHT22;15176;50.844;4.412;2022-11-18T10:54:36;13.40;99.90
27795;DHT22;15176;50.844;4.412;2022-11-18T10:57:20;13.30;99.90
27795;DHT22;15176;50.844;4.412;2022-11-18T10:59:55;13.80;99.90
27795;DHT22;15176;50.844;4.412;2022-11-18T11:02:41;13.60;99.90
27795;DHT22;15176;50.844;4.412;2022-11-18T11:05:20;13.50;99.90
27795;DHT22;15176;50.844;4.412;2022-11-18T11:08:04;13.70;99.90
27795;DHT22;15176;50.844;4.412;2022-11-18T11:10:31;13.70;99.90
27795;DHT22;15176;50.844;4.412;2022-11-18T11:13:13;13.60;99.90
27795;DHT22;15176;50.844;4.412;2022-11-18T11:15:42;13.60;99.90
27795;DHT22;15176;50.844;4.412;2022-11-18T11:18:26;13.70;99.90
27795;DHT22;15176;50.844;4.412;2022-11-18T11:23:38;13.50;99.90
27795;DHT22;15176;50.844;4.412;2022-11-18T11:45:46;14.00;99.90
27795;DHT22;15176;50.844;4.412;2022-11-18T11:51:24;14.10;99.90
27795;DHT22;15176;50.844;4.412;2022-11-18T11:57:01;14.10;99.90
27795;DHT22;15176;50.844;4.412;2022-11-18T11:59:43;14.00;99.90
27795;DHT22;15176;50.844;4.412;2022-11-18T12:02:24;13.60;99.90
27795;DHT22;15176;50.844;4.412;2022-11-18T12:07:39;14.00;99.90
27795;DHT22;15176;50.844;4.412;2022-11-18T12:13:12;14.00;99.90
27795;DHT22;15176;50.844;4.412;2022-11-18T12:24:40;14.40;99.90
27795;DHT22;15176;50.844;4.412;2022-11-18T12:30:16;14.70;99.90
27795;DHT22;15176;50.844;4.412;2022-11-18T12:32:43;14.50;99.90
27795;DHT22;15176;50.844;4.412;2022-11-18T12:40:43;14.70;99.90
27795;DHT22;15176;50.844;4.412;2022-11-18T12:51:49;13.90;99.90
27795;DHT22;15176;50.844;4.412;2022-11-18T12:54:38;13.80;99.90
27795;DHT22;15176;50.844;4.412;2022-11-18T12:57:25;14.00;99.90
27795;DHT22;15176;50.844;4.412;2022-11-18T12:59:51;14.00;99.90
27795;DHT22;15176;50.844;4.412;2022-11-18T13:02:26;14.40;99.90
27795;DHT22;15176;50.844;4.412;2022-11-18T13:07:37;14.90;99.90
27795;DHT22;15176;50.844;4.412;2022-11-18T13:10:28;14.80;99.90
27795;DHT22;15176;50.844;4.412;2022-11-18T13:12:55;14.90;99.90
27795;DHT22;15176;50.844;4.412;2022-11-18T13:15:22;14.90;99.90
27795;DHT22;15176;50.844;4.412;2022-11-18T13:18:18;14.90;99.90
27795;DHT22;15176;50.844;4.412;2022-11-18T13:20:57;14.80;99.90
27795;DHT22;15176;50.844;4.412;2022-11-18T13:23:28;15.10;99.90
27795;DHT22;15176;50.844;4.412;2022-11-18T13:26:28;15.40;99.90
27795;DHT22;15176;50.844;4.412;2022-11-18T13:32:11;15.70;99.90
27795;DHT22;15176;50.844;4.412;2022-11-18T13:34:51;15.50;99.90
27795;DHT22;15176;50.844;4.412;2022-11-18T13:37:24;15.70;99.90
27795;DHT22;15176;50.844;4.412;2022-11-18T13:39:50;15.50;99.90
27795;DHT22;15176;50.844;4.412;2022-11-18T13:42:19;15.90;99.90
27795;DHT22;15176;50.844;4.412;2022-11-18T13:44:59;16.10;99.90
27795;DHT22;15176;50.844;4.412;2022-11-18T13:50:43;15.70;99.90
27795;DHT22;15176;50.844;4.412;2022-11-18T13:53:32;15.30;99.90
27795;DHT22;15176;50.844;4.412;2022-11-18T13:56:13;15.40;99.90
27795;DHT22;15176;50.844;4.412;2022-11-18T14:01:25;14.70;99.90
27795;DHT22;15176;50.844;4.412;2022-11-18T14:04:04;14.80;99.90
27795;DHT22;15176;50.844;4.412;2022-11-18T14:06:38;14.50;99.90
27795;DHT22;15176;50.844;4.412;2022-11-18T14:11:38;14.70;99.90
27795;DHT22;15176;50.844;4.412;2022-11-18T14:14:04;14.30;99.90
27795;DHT22;15176;50.844;4.412;2022-11-18T14:16:35;14.50;99.90
27795;DHT22;15176;50.844;4.412;2022-11-18T14:19:02;14.60;99.90
27795;DHT22;15176;50.844;4.412;2022-11-18T14:21:33;14.70;99.90
27795;DHT22;15176;50.844;4.412;2022-11-18T14:23:59;14.80;99.90
27795;DHT22;15176;50.844;4.412;2022-11-18T14:26:34;14.80;99.90
27795;DHT22;15176;50.844;4.412;2022-11-18T14:29:14;15.00;99.90
27795;DHT22;15176;50.844;4.412;2022-11-18T14:32:01;14.90;99.90
27795;DHT22;15176;50.844;4.412;2022-11-18T14:34:26;15.00;99.90
27795;DHT22;15176;50.844;4.412;2022-11-18T14:36:54;15.10;99.90
27795;DHT22;15176;50.844;4.412;2022-11-18T14:39:23;15.00;99.90
27795;DHT22;15176;50.844;4.412;2022-11-18T14:41:50;15.00;99.90
27795;DHT22;15176;50.844;4.412;2022-11-18T14:44:21;14.80;99.90
27795;DHT22;15176;50.844;4.412;2022-11-18T14:46:50;14.80;99.90
27795;DHT22;15176;50.844;4.412;2022-11-18T14:49:23;14.40;99.90
27795;DHT22;15176;50.844;4.412;2022-11-18T14:51:53;14.30;99.90
27795;DHT22;15176;50.844;4.412;2022-11-18T14:54:22;14.00;99.90
27795;DHT22;15176;50.844;4.412;2022-11-18T14:56:50;14.40;99.90
27795;DHT22;15176;50.844;4.412;2022-11-18T14:59:18;14.60;99.90
27795;DHT22;15176;50.844;4.412;2022-11-18T15:01:45;14.40;99.90
27795;DHT22;15176;50.844;4.412;2022-11-18T15:04:12;14.10;99.90
27795;DHT22;15176;50.844;4.412;2022-11-18T15:06:38;14.20;99.90
27795;DHT22;15176;50.844;4.412;2022-11-18T15:09:05;14.20;99.90
27795;DHT22;15176;50.844;4.412;2022-11-18T15:11:34;14.50;99.90
27795;DHT22;15176;50.844;4.412;2022-11-18T15:14:01;14.70;99.90
27795;DHT22;15176;50.844;4.412;2022-11-18T15:16:29;14.50;99.90
27795;DHT22;15176;50.844;4.412;2022-11-18T15:18:57;14.60;99.90
27795;DHT22;15176;50.844;4.412;2022-11-18T15:21:24;14.00;99.90
27795;DHT22;15176;50.844;4.412;2022-11-18T15:23:50;14.00;99.90
27795;DHT22;15176;50.844;4.412;2022-11-18T15:26:24;14.10;99.90
27795;DHT22;15176;50.844;4.412;2022-11-18T15:28:52;14.00;99.90
27795;DHT22;15176;50.844;4.412;2022-11-18T15:31:19;13.60;99.90
27795;DHT22;15176;50.844;4.412;2022-11-18T15:33:45;14.00;99.90
27795;DHT22;15176;50.844;4.412;2022-11-18T15:36:12;14.20;99.90
27795;DHT22;15176;50.844;4.412;2022-11-18T15:38:39;14.30;99.90
27795;DHT22;15176;50.844;4.412;2022-11-18T15:41:06;14.10;99.90
27795;DHT22;15176;50.844;4.412;2022-11-18T15:43:31;14.00;99.90
27795;DHT22;15176;50.844;4.412;2022-11-18T15:45:57;13.70;99.90
27795;DHT22;15176;50.844;4.412;2022-11-18T15:48:23;13.80;99.90
27795;DHT22;15176;50.844;4.412;2022-11-18T15:50:49;13.60;99.90
27795;DHT22;15176;50.844;4.412;2022-11-18T15:53:16;13.40;99.90
27795;DHT22;15176;50.844;4.412;2022-11-18T15:55:42;13.50;99.90
27795;DHT22;15176;50.844;4.412;2022-11-18T15:58:08;13.60;99.90
27795;DHT22;15176;50.844;4.412;2022-11-18T16:00:34;13.70;99.90
27795;DHT22;15176;50.844;4.412;2022-11-18T16:03:00;13.70;99.90
27795;DHT22;15176;50.844;4.412;2022-11-18T16:05:25;13.90;99.90
27795;DHT22;15176;50.844;4.412;2022-11-18T16:07:51;14.00;99.90
27795;DHT22;15176;50.844;4.412;2022-11-18T16:10:17;13.70;99.90
27795;DHT22;15176;50.844;4.412;2022-11-18T16:13:01;13.50;99.90
27795;DHT22;15176;50.844;4.412;2022-11-18T16:15:27;13.50;99.90
27795;DHT22;15176;50.844;4.412;2022-11-18T16:18:08;13.40;99.90
27795;DHT22;15176;50.844;4.412;2022-11-18T16:20:33;13.40;99.90
27795;DHT22;15176;50.844;4.412;2022-11-18T16:22:59;13.10;99.90
27795;DHT22;15176;50.844;4.412;2022-11-18T16:25:25;13.40;99.90
27795;DHT22;15176;50.844;4.412;2022-11-18T16:27:53;13.80;99.90
27795;DHT22;15176;50.844;4.412;2022-11-18T16:30:19;13.60;99.90
27795;DHT22;15176;50.844;4.412;2022-11-18T16:33:03;13.40;99.90
27795;DHT22;15176;50.844;4.412;2022-11-18T16:35:29;13.40;99.90
27795;DHT22;15176;50.844;4.412;2022-11-18T16:37:54;13.40;99.90
27795;DHT22;15176;50.844;4.412;2022-11-18T16:40:23;13.40;99.90
27795;DHT22;15176;50.844;4.412;2022-11-18T16:42:50;13.40;99.90
27795;DHT22;15176;50.844;4.412;2022-11-18T16:45:17;13.30;99.90
27795;DHT22;15176;50.844;4.412;2022-11-18T16:47:43;13.10;99.90
27795;DHT22;15176;50.844;4.412;2022-11-18T16:50:09;13.00;99.90
27795;DHT22;15176;50.844;4.412;2022-11-18T16:52:35;13.10;99.90
27795;DHT22;15176;50.844;4.412;2022-11-18T16:55:01;12.90;99.90
27795;DHT22;15176;50.844;4.412;2022-11-18T16:57:28;12.90;99.90
27795;DHT22;15176;50.844;4.412;2022-11-18T16:59:55;12.80;99.90
27795;DHT22;15176;50.844;4.412;2022-11-18T17:02:21;12.80;99.90
27795;DHT22;15176;50.844;4.412;2022-11-18T17:04:48;12.80;99.90
27795;DHT22;15176;50.844;4.412;2022-11-18T17:07:14;12.70;99.90
27795;DHT22;15176;50.844;4.412;2022-11-18T17:09:39;12.70;99.90
27795;DHT22;15176;50.844;4.412;2022-11-18T17:12:05;12.90;99.90
27795;DHT22;15176;50.844;4.412;2022-11-18T17:14:31;12.80;99.90
27795;DHT22;15176;50.844;4.412;2022-11-18T17:16:58;13.00;99.90
27795;DHT22;15176;50.844;4.412;2022-11-18T17:19:24;12.80;99.90
27795;DHT22;15176;50.844;4.412;2022-11-18T17:21:51;12.60;99.90
27795;DHT22;15176;50.844;4.412;2022-11-18T17:24:20;12.60;99.90
27795;DHT22;15176;50.844;4.412;2022-11-18T17:26:46;12.50;99.90
27795;DHT22;15176;50.844;4.412;2022-11-18T17:29:13;12.40;99.90
27795;DHT22;15176;50.844;4.412;2022-11-18T17:31:40;12.50;99.90
27795;DHT22;15176;50.844;4.412;2022-11-18T17:34:10;12.20;99.90
27795;DHT22;15176;50.844;4.412;2022-11-18T17:36:36;12.10;99.90
27795;DHT22;15176;50.844;4.412;2022-11-18T17:39:02;12.30;99.90
27795;DHT22;15176;50.844;4.412;2022-11-18T17:41:29;12.20;99.90
27795;DHT22;15176;50.844;4.412;2022-11-18T17:44:15;12.30;99.90
27795;DHT22;15176;50.844;4.412;2022-11-18T17:46:42;12.20;99.90
27795;DHT22;15176;50.844;4.412;2022-11-18T17:49:13;12.20;99.90
27795;DHT22;15176;50.844;4.412;2022-11-18T17:51:39;12.10;99.90
27795;DHT22;15176;50.844;4.412;2022-11-18T17:54:06;12.20;99.90
27795;DHT22;15176;50.844;4.412;2022-11-18T17:56:32;12.20;99.90
27795;DHT22;15176;50.844;4.412;2022-11-18T17:58:57;12.10;99.90
27795;DHT22;15176;50.844;4.412;2022-11-18T18:01:23;12.20;99.90
27795;DHT22;15176;50.844;4.412;2022-11-18T18:03:49;12.20;99.90
27795;DHT22;15176;50.844;4.412;2022-11-18T18:06:16;12.20;99.90
27795;DHT22;15176;50.844;4.412;2022-11-18T18:08:44;12.10;99.90